ADDS TAF Board (Experimental) INFO Settings
IDs: Format: Expanded Condensed

KJFK - New York/Kennedy Int, NY, US

Issued at 1120 UTC 28 May 2016
Updated at: 1144 UTC 28 May 2016
Time1051Z 28/12Z 28/13Z 28/14Z 28/15Z 28/16Z 28/17Z 28/18Z 28/19Z 28/20Z 28/21Z 28/22Z 28/23Z 29/00Z
Type OBS PRVL PRVL PRVL PRVL PRVL PRVL PRVL PRVL PRVL PRVL PRVL PRVL PRVL
VIS 10 >6 >6 >6 >6 >6 >6 >6 >6 >6 >6 >6 >6 >6
CIG 250 250 250 250 250 250 250 -- -- -- -- -- -- --
Cover BKN BKN BKN BKN BKN BKN BKN SCT SCT SCT SCT SCT SCT SCT
FltCat VFR VFR VFR VFR VFR VFR VFR VFR VFR VFR VFR VFR VFR VFR
WX -- -- -- -- -- -- -- -- -- -- -- -- -- --
WDir 210 210 210 210 210 210 210 180 180 180 180 180 180 180
WSpd 7 8 8 8 8 8 8 14 14 14 14 14 14 14
WGst -- -- -- -- -- -- -- -- -- -- -- -- -- --
R04/22
XWnd -0 -0 -0 -0 -0 -0 -0 -7 -7 -7 -7 -7 -7 -7
HWnd -7 -8 -8 -8 -8 -8 -8 -12 -12 -12 -12 -12 -12 -12
R13/31
XWnd -7 -8 -8 -8 -8 -8 -8 -12 -12 -12 -12 -12 -12 -12
HWnd 0 0 0 0 0 0 0 7 7 7 7 7 7 7

NOTE: TEMPO conditions in [brackets]. Keep in mind TEMPO conditions might be better (lower impact) than prevailing conditions.

Raw TAF
KJFK 281120Z 2812/2918 21008KT P6SM BKN250
  FM281800 18014KT P6SM FEW050 SCT250
  FM290100 20009KT P6SM SKC
  FM290500 22007KT P6SM SKC
  FM291500 18011KT P6SM FEW250


Raw METAR
KJFK 281051Z 21007KT 10SM FEW150 BKN250 19/16 A3013 RMK AO2 SLP204 T01940156 $
KJFK 280951Z 21006KT 10SM FEW150 BKN250 18/15 A3012 RMK AO2 SLP200 T01780150 $
KJFK 280851Z 20007KT 10SM BKN250 19/15 A3010 RMK AO2 SLP194 T01890150 53001 $

METAR Board
Radar Display
Forecast Discussion

TAF Board Legend

Potential Impact
Threat None Slight Moderate High
Visibility (sm) ≥5.1 5.1>X≥3 3>X≥1 <1
Ceiling (100 ft) ≥30.1 30.1>X≥10 10>X≥5 <5
Wind Speed (kt) <10 10≤X<20 20≤X<30 ≥30
Wind Gust (kt) <15 15≤X<25 25≤X<35 ≥35
Weather No Wx Reported VCTS,-TS,-FZRA,SN TS,FZRA +TS,+FZRA,+SN